地図

経路データ

SID SEASON NUMBER BASIN SUBBASIN NAME ISO_TIME NATURE LAT LON WMO_WIND WMO_PRES WMO_AGENCY TRACK_TYPE DIST2LAND LANDFALL IFLAG USA_AGENCY USA_ATCF_ID USA_LAT USA_LON USA_RECORD USA_STATUS USA_WIND USA_PRES USA_SSHS USA_R34_NE USA_R34_SE USA_R34_SW USA_R34_NW USA_R50_NE USA_R50_SE USA_R50_SW USA_R50_NW USA_R64_NE USA_R64_SE USA_R64_SW USA_R64_NW USA_POCI USA_ROCI USA_RMW USA_EYE TOKYO_LAT TOKYO_LON TOKYO_GRADE TOKYO_WIND TOKYO_PRES TOKYO_R50_DIR TOKYO_R50_LONG TOKYO_R50_SHORT TOKYO_R30_DIR TOKYO_R30_LONG TOKYO_R30_SHORT TOKYO_LAND CMA_LAT CMA_LON CMA_CAT CMA_WIND CMA_PRES HKO_LAT HKO_LON HKO_CAT HKO_WIND HKO_PRES NEWDELHI_LAT NEWDELHI_LON NEWDELHI_GRADE NEWDELHI_WIND NEWDELHI_PRES NEWDELHI_CI NEWDELHI_DP NEWDELHI_POCI REUNION_LAT REUNION_LON REUNION_TYPE REUNION_WIND REUNION_PRES REUNION_TNUM REUNION_CI REUNION_RMW REUNION_R34_NE REUNION_R34_SE REUNION_R34_SW REUNION_R34_NW REUNION_R50_NE REUNION_R50_SE REUNION_R50_SW REUNION_R50_NW REUNION_R64_NE REUNION_R64_SE REUNION_R64_SW REUNION_R64_NW BOM_LAT BOM_LON BOM_TYPE BOM_WIND BOM_PRES BOM_TNUM BOM_CI BOM_RMW BOM_R34_NE BOM_R34_SE BOM_R34_SW BOM_R34_NW BOM_R50_NE BOM_R50_SE BOM_R50_SW BOM_R50_NW BOM_R64_NE BOM_R64_SE BOM_R64_SW BOM_R64_NW BOM_ROCI BOM_POCI BOM_EYE BOM_POS_METHOD BOM_PRES_METHOD NADI_LAT NADI_LON NADI_CAT NADI_WIND NADI_PRES WELLINGTON_LAT WELLINGTON_LON WELLINGTON_WIND WELLINGTON_PRES DS824_LAT DS824_LON DS824_STAGE DS824_WIND DS824_PRES TD9636_LAT TD9636_LON TD9636_STAGE TD9636_WIND TD9636_PRES TD9635_LAT TD9635_LON TD9635_WIND TD9635_PRES TD9635_ROCI NEUMANN_LAT NEUMANN_LON NEUMANN_CLASS NEUMANN_WIND NEUMANN_PRES MLC_LAT MLC_LON MLC_CLASS MLC_WIND MLC_PRES USA_GUST BOM_GUST BOM_GUST_PER REUNION_GUST REUNION_GUST_PER USA_SEAHGT USA_SEARAD_NE USA_SEARAD_SE USA_SEARAD_SW USA_SEARAD_NW STORM_SPEED STORM_DIR
1959296N12265 1959 97 EP MM NOT_NAMED 1959-10-22 12:00:00 TS 12.2000 -95.1000 40 hurdat_epa main 404 390 O_____________ hurdat_epa EP121959 12.2000 -95.1000 TS 40 0 6 290
1959296N12265 1959 97 EP MM NOT_NAMED 1959-10-22 15:00:00 TS 12.3000 -95.3800 main 390 371 P_____________ EP121959 12.3000 -95.3800 TS 42 0 6 289
1959296N12265 1959 97 EP MM NOT_NAMED 1959-10-22 18:00:00 TS 12.4000 -95.7000 45 hurdat_epa main 371 351 O_____________ hurdat_epa EP121959 12.4000 -95.7000 TS 45 0 7 286
1959296N12265 1959 97 EP MM NOT_NAMED 1959-10-22 21:00:00 TS 12.5000 -96.0850 main 351 336 P_____________ EP121959 12.5000 -96.0850 TS 47 0 9 283
1959296N12265 1959 97 EP MM NOT_NAMED 1959-10-23 00:00:00 TS 12.6000 -96.5545 50 hurdat_epa main 335 326 O________OO___ hurdat_epa EP121959 12.6000 -96.5000 TS 50 0 12.6000 -96.7000 TC 75 12.6000 -96.7000 4 9 281
1959296N12265 1959 97 EP MM NOT_NAMED 1959-10-23 03:00:00 TS 12.6719 -97.0051 main 327 327 P________PP___ EP121959 12.6924 -96.8926 TS 52 0 12.6351 -97.1475 TC 75 12.6632 -97.1703 4 9 280
1959296N12265 1959 97 EP MM NOT_NAMED 1959-10-23 06:00:00 TS 12.7543 -97.4646 55 hurdat_epa main 328 328 O________OP___ hurdat_epa EP121959 12.8000 -97.3000 TS 55 0 12.7000 -97.6000 TC 75 12.7408 -97.6326 4 9 282
1959296N12265 1959 97 EP MM NOT_NAMED 1959-10-23 09:00:00 TS 12.8716 -97.9327 main 333 333 P________PP___ EP121959 12.9349 -97.7351 TS 57 0 12.8200 -98.0575 TC 75 12.8480 -98.0785 4 9 288
1959296N12265 1959 97 EP MM NOT_NAMED 1959-10-23 12:00:00 TS 13.0400 -98.3800 60 hurdat_epa main 342 325 O________OO___ hurdat_epa EP121959 13.1000 -98.2000 TS 60 0 13.0000 -98.5000 TC 75 13.0000 -98.5000 4 10 293
1959296N12265 1959 97 EP MM NOT_NAMED 1959-10-23 15:00:00 TS 13.2493 -98.8275 main 331 317 P________PP___ EP121959 13.2850 -98.7075 TS 65 1 13.2349 -98.9150 TC 75 13.2065 -98.8925 4 10 298
1959296N12265 1959 97 EP MM NOT_NAMED 1959-10-23 18:00:00 TS 13.4909 -99.2530 70 hurdat_epa main 322 306 O________OP___ hurdat_epa EP121959 13.5000 -99.2000 HU 70 1 13.5000 -99.3000 TC 75 13.4545 -99.2650 4 9 302
1959296N12265 1959 97 EP MM NOT_NAMED 1959-10-23 21:00:00 TS 13.7420 -99.6321 main 310 292 P________PP___ EP121959 13.7424 -99.6151 HU 72 1 13.7499 -99.6501 TC 75 13.7253 -99.6301 4 9 305
1959296N12265 1959 97 EP MM NOT_NAMED 1959-10-24 00:00:00 TS 14.0000 -100.000 75 hurdat_epa main 298 284 O________OO___ hurdat_epa EP121959 14.0000 -100.000 HU 75 1 14.0000 -100.000 TC 75 14.0000 -100.000 4 9 304
1959296N12265 1959 97 EP MM NOT_NAMED 1959-10-24 03:00:00 TS 14.2491 -100.398 main 289 268 P________PP___ EP121959 14.2499 -100.400 HU 75 1 14.2500 -100.393 TC 75 14.2459 -100.405 4 9 303
1959296N12265 1959 97 EP MM NOT_NAMED 1959-10-24 06:00:00 TS 14.4985 -100.803 75 hurdat_epa main 272 267 O________OP___ hurdat_epa EP121959 14.5000 -100.800 HU 75 1 14.5000 -100.800 TC 75 14.4925 -100.815 4 9 302
1959296N12265 1959 97 EP MM NOT_NAMED 1959-10-24 09:00:00 TS 14.7456 -101.213 main 275 257 P________PP___ EP121959 14.7500 -101.215 HU 75 1 14.7425 -101.208 TC 75 14.7428 -101.218 4 9 303
1959296N12265 1959 97 EP MM NOT_NAMED 1959-10-24 12:00:00 TS 15.0000 -101.600 75 hurdat_epa main 260 239 O________OO___ hurdat_epa EP121959 15.0000 -101.600 HU 75 1 15.0000 -101.600 TC 75 15.0000 -101.600 4 9 307
1959296N12265 1959 97 EP MM NOT_NAMED 1959-10-24 15:00:00 TS 15.2767 -101.947 main 239 233 P________PP___ EP121959 15.2499 -101.923 HU 77 1 15.2999 -101.965 TC 75 15.2839 -101.959 4 8 311
1959296N12265 1959 97 EP MM NOT_NAMED 1959-10-24 18:00:00 TS 15.5545 -102.259 80 hurdat_epa main 229 224 O________OP___ hurdat_epa EP121959 15.5000 -102.200 HU 80 1 15.6000 -102.300 TC 75 15.5723 -102.295 4 8 313
1959296N12265 1959 97 EP MM NOT_NAMED 1959-10-24 21:00:00 TS 15.8189 -102.548 main 224 216 P________PP___ EP121959 15.7574 -102.450 HU 85 2 15.8650 -102.615 TC 87 15.8495 -102.609 4 7 313
1959296N12265 1959 97 EP MM NOT_NAMED 1959-10-25 00:00:00 TS 16.0600 -102.820 90 hurdat_epa main 208 197 O________OO___ hurdat_epa EP121959 16.0000 -102.700 HU 90 2 16.1000 -102.900 TC 100 16.1000 -102.900 4 7 311
1959296N12265 1959 97 EP MM NOT_NAMED 1959-10-25 03:00:00 TS 16.2751 -103.092 main 197 183 P________PP___ EP121959 16.2150 -102.993 HU 92 2 16.3149 -103.158 TC 100 16.3156 -103.160 4 7 308
1959296N12265 1959 97 EP MM NOT_NAMED 1959-10-25 06:00:00 TS 16.4604 -103.360 95 hurdat_epa main 186 179 O________OP___ hurdat_epa EP121959 16.4000 -103.300 HU 95 2 16.5000 -103.400 TC 100 16.5020 -103.400 4 6 304
1959296N12265 1959 97 EP MM NOT_NAMED 1959-10-25 09:00:00 TS 16.6214 -103.625 main 183 173 P________PP___ EP121959 16.5575 -103.600 HU 97 3 16.6649 -103.643 TC 105 16.6625 -103.641 4 6 300
1959296N12265 1959 97 EP MM NOT_NAMED 1959-10-25 12:00:00 TS 16.7600 -103.900 100 hurdat_epa main 173 169 O________OO___ hurdat_epa EP121959 16.7000 -103.900 HU 100 3 16.8000 -103.900 TC 110 16.8000 -103.900 4 6 296
1959296N12265 1959 97 EP MM NOT_NAMED 1959-10-25 15:00:00 TS 16.8887 -104.200 main 173 173 P________PP___ EP121959 16.8575 -104.200 HU 102 3 16.9075 -104.185 TC 110 16.9137 -104.232 4 6 292
1959296N12265 1959 97 EP MM NOT_NAMED 1959-10-25 18:00:00 TS 17.0016 -104.516 105 hurdat_epa main 179 179 O________OP___ hurdat_epa EP121959 17.0000 -104.500 HU 105 3 17.0000 -104.500 TC 110 17.0079 -104.580 4 7 288
1959296N12265 1959 97 EP MM NOT_NAMED 1959-10-25 21:00:00 TS 17.0967 -104.858 main 200 200 P________PP___ EP121959 17.1000 -104.823 HU 107 3 17.0926 -104.865 TC 115 17.0981 -104.913 4 6 288
1959296N12265 1959 97 EP MM NOT_NAMED 1959-10-26 00:00:00 TS 17.2000 -105.160 110 hurdat_epa main 218 217 O________OO___ hurdat_epa EP121959 17.2000 -105.100 HU 110 3 17.2000 -105.200 TC 120 17.2000 -105.200 4 6 296
1959296N12265 1959 97 EP MM NOT_NAMED 1959-10-26 03:00:00 TS 17.3378 -105.379 main 221 204 P________PP___ EP121959 17.3424 -105.288 HU 112 3 17.3424 -105.438 TC 120 17.3192 -105.445 4 5 310
1959296N12265 1959 97 EP MM NOT_NAMED 1959-10-26 06:00:00 TS 17.4909 -105.527 115 hurdat_epa main 204 197 O________OP___ hurdat_epa EP121959 17.5000 -105.400 HU 115 4 17.5000 -105.600 TC 120 17.4547 -105.635 4 4 320
1959296N12265 1959 97 EP MM NOT_NAMED 1959-10-26 09:00:00 TS 17.6366 -105.638 main 197 183 P________PP___ EP121959 17.6500 -105.480 HU 115 4 17.6350 -105.737 TC 120 17.6129 -105.757 4 3 334
1959296N12265 1959 97 EP MM NOT_NAMED 1959-10-26 12:00:00 TS 17.8000 -105.680 115 hurdat_epa main 183 164 O________OO___ hurdat_epa EP121959 17.8000 -105.500 HU 115 4 17.8000 -105.800 TC 120 17.8000 -105.800 4 4 0
1959296N12265 1959 97 EP MM NOT_NAMED 1959-10-26 15:00:00 TS 17.9979 -105.661 main 164 140 P________PP___ EP121959 17.9500 -105.480 HU 115 4 18.0350 -105.795 TC 120 18.0196 -105.756 4 4 16
1959296N12265 1959 97 EP MM NOT_NAMED 1959-10-26 18:00:00 TS 18.2103 -105.565 115 hurdat_epa main 140 109 O________OP___ hurdat_epa EP121959 18.1000 -105.400 HU 115 4 18.3000 -105.700 TC 120 18.2653 -105.643 4 5 30
1959296N12265 1959 97 EP MM NOT_NAMED 1959-10-26 21:00:00 TS 18.4109 -105.410 main 109 79 P________PP___ EP121959 18.2425 -105.272 HU 117 4 18.5500 -105.530 TC 120 18.5284 -105.483 4 5 40
1959296N12265 1959 97 EP MM NOT_NAMED 1959-10-27 00:00:00 TS 18.6118 -105.206 120 hurdat_epa main 79 49 O________OO___ hurdat_epa EP121959 18.4000 -105.100 HU 120 4 18.8000 -105.300 120 18.8000 -105.300 4 6 45
1959296N12265 1959 97 EP MM NOT_NAMED 1959-10-27 03:00:00 TS 18.8288 -104.975 main 49 22 P________P____ EP121959 18.6000 -104.900 HU 120 4 19.0575 -105.050 120 4 6 45
1959296N12265 1959 97 EP MM NOT_NAMED 1959-10-27 06:00:00 TS 19.0500 -104.750 120 hurdat_epa main 11 0 O________O____ hurdat_epa EP121959 18.8000 -104.700 HU 120 4 19.3000 -104.800 120 4 6 43
1959296N12265 1959 97 EP MM NOT_NAMED 1959-10-27 09:00:00 TS 19.2287 -104.575 main 0 0 P________P____ EP121959 18.9499 -104.557 HU 120 4 19.5074 -104.592 130 4 5 43
1959296N12265 1959 97 EP MM NOT_NAMED 1959-10-27 12:00:00 TS 19.4000 -104.400 120 958 hurdat_epa main 0 0 O________O____ hurdat_epa EP121959 19.1000 -104.400 L HU 120 958 4 19.7000 -104.400 140 958 5 46
1959296N12265 1959 97 EP MM NOT_NAMED 1959-10-27 15:00:00 TS 19.5888 -104.175 main 0 0 P________P____ EP121959 19.2775 -104.157 HU 95 2 19.9000 -104.192 92 6 47
1959296N12265 1959 97 EP MM NOT_NAMED 1959-10-27 18:00:00 TS 19.8000 -103.950 70 hurdat_epa main 0 0 O________O____ hurdat_epa EP121959 19.5000 -103.900 HU 70 1 20.1000 -104.000 45 6 41
1959296N12265 1959 97 EP MM NOT_NAMED 1959-10-27 21:00:00 TS 20.0350 -103.764 main 0 0 P________P____ EP121959 19.7775 -103.678 HU 57 0 20.2924 -103.850 45 6 31
1959296N12265 1959 97 EP MM NOT_NAMED 1959-10-28 00:00:00 TS 20.3286 -103.614 45 hurdat_epa main 0 0 O________O____ hurdat_epa EP121959 20.1000 -103.500 TS 45 0 20.5000 -103.700 45 7 25
1959296N12265 1959 97 EP MM NOT_NAMED 1959-10-28 03:00:00 TS 20.6383 -103.466 main 0 0 P________P____ EP121959 20.4349 -103.400 TS 35 0 20.7350 -103.507 35 7 25
1959296N12265 1959 97 EP MM NOT_NAMED 1959-10-28 06:00:00 TS 20.9600 -103.300 25 hurdat_epa main 0 0 O________O____ hurdat_epa EP121959 20.8000 -103.300 TD 25 -1 21.0000 -103.300 25 7 28
1959296N12265 1959 97 EP MM NOT_NAMED 1959-10-28 09:00:00 NR 21.2925 -103.093 main 0 0 P________P____ EP121959 21.2075 -103.108 TD 25 -1 21.2925 -103.093 25 7 30
1959296N12265 1959 97 EP MM NOT_NAMED 1959-10-28 12:00:00 NR 21.6000 -102.900 main 0 0 O________O____ jtwc_ep EP121959 21.6000 -102.900 25 21.6000 -102.900 25 7 28
1959296N12265 1959 97 EP MM NOT_NAMED 1959-10-28 15:00:00 NR 21.9000 -102.742 main 0 0 P________P____ EP121959 21.9150 -102.742 25 21.9000 -102.742 25 7 25
1959296N12265 1959 97 EP MM NOT_NAMED 1959-10-28 18:00:00 NR 22.2000 -102.600 main 0 0 O________O____ jtwc_ep EP121959 22.2000 -102.600 25 22.2000 -102.600 25 7 25
1959296N12265 1959 97 EP MM NOT_NAMED 1959-10-28 21:00:00 NR 22.5000 -102.442 main 0 0 P________P____ EP121959 22.5000 -102.442 25 22.5000 -102.442 25 7 25
1959296N12265 1959 97 EP MM NOT_NAMED 1959-10-29 00:00:00 NR 22.8000 -102.300 main 0 0 O________O____ jtwc_ep EP121959 22.8000 -102.300 25 22.8000 -102.300 25 6 22
1959296N12265 1959 97 EP MM NOT_NAMED 1959-10-29 03:00:00 NR 23.1000 -102.185 main 0 0 P________P____ EP121959 23.1000 -102.185 25 23.1000 -102.185 25 6 17
1959296N12265 1959 97 EP MM NOT_NAMED 1959-10-29 06:00:00 NR 23.4000 -102.100 main 0 0 O________O____ jtwc_ep EP121959 23.4000 -102.100 25 23.4000 -102.100 25 6 12
1959296N12265 1959 97 EP MM NOT_NAMED 1959-10-29 09:00:00 NR 23.7000 -102.043 main 0 0 P________P____ EP121959 23.7000 -102.043 25 23.7000 -102.043 25 6 8
1959296N12265 1959 97 EP MM NOT_NAMED 1959-10-29 12:00:00 NR 24.0000 -102.000 main 0 O________O____ jtwc_ep EP121959 24.0000 -102.000 25 24.0000 -102.000 25 6 5

IBTrACS Databaseについて

本データベースは、米国NOAAが公開する1842年以降の世界の熱帯低気圧のベストトラックデータアーカイブInternational Best Track Archive for Climate Stewardship (IBTrACS)を、ウェブで閲覧しやすい形式に変換したものです。

最終更新日:2021-12-03